createdAt,value
2022-09-18T00:00:05.787Z,9.40
2022-09-18T00:03:04.348Z,9.60
2022-09-18T00:05:38.696Z,8.40
2022-09-18T00:08:11.531Z,9.10
2022-09-18T00:10:46.745Z,8.30
2022-09-18T00:13:18.948Z,8.70
2022-09-18T00:15:58.452Z,7.90
2022-09-18T00:18:30.803Z,7.30
2022-09-18T00:21:08.524Z,9.50
2022-09-18T00:23:41.676Z,8.40
2022-09-18T00:26:15.309Z,8.20
2022-09-18T00:28:47.411Z,10.40
2022-09-18T00:31:22.073Z,8.80
2022-09-18T00:33:54.307Z,8.10
2022-09-18T00:36:27.210Z,11.50
2022-09-18T00:39:00.974Z,9.70
2022-09-18T00:41:35.330Z,10.30
2022-09-18T00:44:39.011Z,7.60
2022-09-18T00:47:24.300Z,8.60
2022-09-18T00:50:03.427Z,10.80
2022-09-18T00:52:45.823Z,8.90
2022-09-18T00:55:22.551Z,10.30
2022-09-18T00:57:58.699Z,8.30
2022-09-18T01:00:32.272Z,9.10
2022-09-18T01:03:04.939Z,8.60
2022-09-18T01:05:53.004Z,11.10
2022-09-18T01:08:39.544Z,9.00
2022-09-18T01:11:28.995Z,8.60
2022-09-18T01:14:14.379Z,9.80
2022-09-18T01:16:54.266Z,11.90
2022-09-18T01:19:42.364Z,11.50
2022-09-18T01:22:32.344Z,10.90
2022-09-18T01:25:18.395Z,10.20
2022-09-18T01:28:02.400Z,12.20
2022-09-18T01:30:38.126Z,9.40
2022-09-18T01:33:19.452Z,11.30
2022-09-18T01:35:58.455Z,10.80
2022-09-18T01:38:34.746Z,10.00
2022-09-18T01:41:11.294Z,9.50
2022-09-18T01:43:45.635Z,10.90
2022-09-18T01:46:21.160Z,11.90
2022-09-18T01:48:59.636Z,11.90
2022-09-18T01:51:37.497Z,11.40
2022-09-18T01:54:15.730Z,10.00
2022-09-18T01:56:53.979Z,10.50
2022-09-18T01:59:31.137Z,10.50
2022-09-18T02:02:20.007Z,11.20
2022-09-18T02:04:59.895Z,13.70
2022-09-18T02:07:40.664Z,12.20
2022-09-18T02:10:12.981Z,12.80
2022-09-18T02:12:46.834Z,13.30
2022-09-18T02:15:19.770Z,12.80
2022-09-18T02:18:03.322Z,10.80
2022-09-18T02:20:46.179Z,10.80
2022-09-18T02:23:19.390Z,11.80
2022-09-18T02:25:57.130Z,14.50
2022-09-18T02:28:31.099Z,14.80
2022-09-18T02:31:03.584Z,15.10
2022-09-18T02:33:38.933Z,12.90
2022-09-18T02:36:25.976Z,15.60
2022-09-18T02:39:08.912Z,14.50
2022-09-18T02:41:50.642Z,14.40
2022-09-18T02:44:32.144Z,15.90
2022-09-18T02:47:15.108Z,15.40
2022-09-18T02:49:57.962Z,11.50
2022-09-18T02:52:34.907Z,12.70
2022-09-18T02:55:13.039Z,15.50
2022-09-18T02:57:50.641Z,11.70
2022-09-18T03:00:23.288Z,10.60
2022-09-18T03:03:00.299Z,15.60
2022-09-18T03:05:40.185Z,14.80
2022-09-18T03:08:12.288Z,11.70
2022-09-18T03:10:44.479Z,11.70
2022-09-18T03:13:17.072Z,13.00
2022-09-18T03:15:49.231Z,17.90
2022-09-18T03:18:22.065Z,13.10
2022-09-18T03:20:54.519Z,19.00
2022-09-18T03:23:27.412Z,17.70
2022-09-18T03:26:08.762Z,12.70
2022-09-18T03:28:41.092Z,14.10
2022-09-18T03:31:13.645Z,13.40
2022-09-18T03:33:45.885Z,17.60
2022-09-18T03:36:18.685Z,11.10
2022-09-18T03:38:51.151Z,13.70
2022-09-18T03:41:24.218Z,12.80
2022-09-18T03:43:56.591Z,9.80
2022-09-18T03:46:28.862Z,11.90
2022-09-18T03:49:03.931Z,17.30
2022-09-18T03:51:38.901Z,14.80
2022-09-18T03:54:14.669Z,15.10
2022-09-18T03:56:55.631Z,16.00
2022-09-18T03:59:46.373Z,8.40
2022-09-18T04:02:38.761Z,15.90
2022-09-18T04:05:43.462Z,13.10
2022-09-18T04:08:36.658Z,11.00
2022-09-18T04:11:24.635Z,13.90
2022-09-18T04:13:58.341Z,16.60
2022-09-18T04:16:30.436Z,11.10
2022-09-18T04:19:02.970Z,13.00
2022-09-18T04:21:35.071Z,15.00
2022-09-18T04:24:07.531Z,12.40
2022-09-18T04:26:41.394Z,13.50
2022-09-18T04:29:14.250Z,8.30
2022-09-18T04:31:46.372Z,12.60
2022-09-18T04:34:20.056Z,13.40
2022-09-18T04:36:53.379Z,12.00
2022-09-18T04:39:25.567Z,12.20
2022-09-18T04:41:57.581Z,14.50
2022-09-18T04:44:30.462Z,14.10
2022-09-18T04:47:03.183Z,12.80
2022-09-18T04:49:35.506Z,15.30
2022-09-18T04:52:07.589Z,14.40
2022-09-18T04:54:40.828Z,16.10
2022-09-18T04:57:13.441Z,13.50
2022-09-18T04:59:46.482Z,12.10
2022-09-18T05:02:19.310Z,17.10
2022-09-18T05:04:51.814Z,12.80
2022-09-18T05:07:31.723Z,20.40
2022-09-18T05:10:05.070Z,13.20
2022-09-18T05:12:40.762Z,13.60
2022-09-18T05:15:13.898Z,14.60
2022-09-18T05:17:46.267Z,14.70
2022-09-18T05:20:19.639Z,13.60
2022-09-18T05:22:52.574Z,13.80
2022-09-18T05:25:30.237Z,13.50
2022-09-18T05:28:03.926Z,11.20
2022-09-18T05:30:47.017Z,12.80
2022-09-18T05:33:19.578Z,10.30
2022-09-18T05:35:56.666Z,14.80
2022-09-18T05:38:29.374Z,12.40
2022-09-18T05:41:03.733Z,14.50
2022-09-18T05:43:36.116Z,15.40
2022-09-18T05:46:12.737Z,13.80
2022-09-18T05:48:51.308Z,13.60
2022-09-18T05:51:24.226Z,12.50
2022-09-18T05:53:56.611Z,11.50
2022-09-18T05:56:41.510Z,13.40
2022-09-18T05:59:15.017Z,12.50
2022-09-18T06:01:48.898Z,14.60
2022-09-18T06:04:24.755Z,15.00
2022-09-18T06:07:01.574Z,10.40
2022-09-18T06:09:33.967Z,11.10
2022-09-18T06:12:06.529Z,11.50
2022-09-18T06:14:46.369Z,10.90
2022-09-18T06:17:19.751Z,12.30
2022-09-18T06:19:52.782Z,11.20
2022-09-18T06:22:25.054Z,11.40
2022-09-18T06:24:57.160Z,8.20
2022-09-18T06:27:36.217Z,14.40
2022-09-18T06:30:10.442Z,9.40
2022-09-18T06:32:42.528Z,10.80
2022-09-18T06:35:14.809Z,9.90
2022-09-18T06:37:47.482Z,8.00
2022-09-18T06:40:40.576Z,10.40
2022-09-18T06:43:24.456Z,8.00
2022-09-18T06:46:14.973Z,6.60
2022-09-18T06:48:50.949Z,6.70
2022-09-18T06:51:23.134Z,8.10
2022-09-18T06:54:15.641Z,8.20
2022-09-18T06:56:49.871Z,7.30
2022-09-18T06:59:23.549Z,6.80
2022-09-18T07:01:56.548Z,5.10
2022-09-18T07:04:49.698Z,7.30
2022-09-18T07:07:22.713Z,10.70
2022-09-18T07:09:55.637Z,6.20
2022-09-18T07:12:58.487Z,4.90
2022-09-18T07:15:30.973Z,7.10
2022-09-18T07:18:05.106Z,6.40
2022-09-18T07:20:37.511Z,6.40
2022-09-18T07:23:09.941Z,5.30
2022-09-18T07:25:50.253Z,5.90
2022-09-18T07:28:22.825Z,6.30
2022-09-18T07:31:06.471Z,5.50
2022-09-18T07:36:10.446Z,8.10
2022-09-18T07:38:43.369Z,6.10
2022-09-18T07:41:16.530Z,4.80
2022-09-18T07:43:51.939Z,7.20
2022-09-18T07:46:24.370Z,7.60
2022-09-18T07:48:58.092Z,7.00
2022-09-18T07:51:32.810Z,7.80
2022-09-18T07:54:05.102Z,5.80
2022-09-18T07:56:51.073Z,7.30
2022-09-18T07:59:25.730Z,8.70
2022-09-18T08:02:02.251Z,7.60
2022-09-18T08:04:36.612Z,8.90
2022-09-18T08:07:28.860Z,7.30
2022-09-18T08:10:13.791Z,8.90
2022-09-18T08:13:05.266Z,8.70
2022-09-18T08:15:54.662Z,8.20
2022-09-18T08:18:45.642Z,7.60
2022-09-18T08:21:35.312Z,6.40
2022-09-18T08:24:13.062Z,8.40
2022-09-18T08:26:45.822Z,10.50
2022-09-18T08:29:20.013Z,7.50
2022-09-18T08:32:05.495Z,6.10
2022-09-18T08:34:42.175Z,7.50
2022-09-18T08:37:16.081Z,7.80
2022-09-18T08:40:11.048Z,9.90
2022-09-18T08:43:10.759Z,6.90
2022-09-18T08:45:56.083Z,6.30
2022-09-18T08:48:32.477Z,5.60
2022-09-18T08:51:14.139Z,8.00
2022-09-18T08:53:51.806Z,8.60
2022-09-18T08:56:44.134Z,8.30
2022-09-18T08:59:30.954Z,8.90
2022-09-18T09:02:18.515Z,6.70
2022-09-18T09:04:54.295Z,8.30
2022-09-18T09:07:46.201Z,5.60
2022-09-18T09:10:35.157Z,9.70
2022-09-18T09:13:26.293Z,8.70
2022-09-18T09:16:06.623Z,6.80
2022-09-18T09:18:49.615Z,7.20
2022-09-18T09:21:25.359Z,7.70
2022-09-18T09:24:17.312Z,8.10
2022-09-18T09:27:20.956Z,6.80
2022-09-18T09:30:14.685Z,8.20
2022-09-18T09:33:17.835Z,7.40
2022-09-18T09:36:12.844Z,7.00
2022-09-18T09:38:56.126Z,5.60
2022-09-18T09:41:35.316Z,4.60
2022-09-18T09:44:23.272Z,6.20
2022-09-18T09:47:02.441Z,5.70
2022-09-18T09:49:45.095Z,4.80
2022-09-18T09:52:23.191Z,4.30
2022-09-18T09:55:02.604Z,8.50
2022-09-18T09:57:41.811Z,3.70
2022-09-18T10:00:19.444Z,5.80
2022-09-18T10:03:11.156Z,4.60
2022-09-18T10:05:53.884Z,4.30
2022-09-18T10:08:33.337Z,6.10
2022-09-18T10:11:11.305Z,6.60
2022-09-18T10:13:50.269Z,6.10
2022-09-18T10:16:26.058Z,5.80
2022-09-18T10:19:00.938Z,3.30
2022-09-18T10:21:36.733Z,8.00
2022-09-18T10:26:52.845Z,7.20
2022-09-18T10:29:25.049Z,6.00
2022-09-18T10:32:01.430Z,6.60
2022-09-18T10:34:45.273Z,3.70
2022-09-18T10:37:38.017Z,8.80
2022-09-18T10:40:33.205Z,3.60
2022-09-18T10:43:06.622Z,7.10
2022-09-18T10:45:42.703Z,7.70
2022-09-18T10:48:27.492Z,5.70
2022-09-18T10:51:01.666Z,5.80
2022-09-18T10:54:06.792Z,4.90
2022-09-18T10:56:55.530Z,5.30
2022-09-18T10:59:38.446Z,5.80
2022-09-18T11:02:21.935Z,7.10
2022-09-18T11:04:54.781Z,5.60
2022-09-18T11:07:28.180Z,5.70
2022-09-18T11:10:10.049Z,6.40
2022-09-18T11:12:55.571Z,6.00
2022-09-18T11:15:33.986Z,3.60
2022-09-18T11:18:15.894Z,4.90
2022-09-18T11:20:52.101Z,4.90
2022-09-18T11:23:31.484Z,5.70
2022-09-18T11:26:20.508Z,5.30
2022-09-18T11:31:48.223Z,8.40
2022-09-18T11:34:28.994Z,4.30
2022-09-18T11:37:06.535Z,5.60
2022-09-18T11:39:42.838Z,7.70
2022-09-18T11:42:19.896Z,9.00
2022-09-18T11:44:52.793Z,3.60
2022-09-18T11:47:35.906Z,5.00
2022-09-18T11:50:15.314Z,4.80
2022-09-18T11:52:51.568Z,5.40
2022-09-18T11:55:32.389Z,4.20
2022-09-18T11:58:07.507Z,4.90
2022-09-18T12:00:44.770Z,6.10
2022-09-18T12:03:23.125Z,5.10
2022-09-18T12:05:59.876Z,6.10
2022-09-18T12:08:44.464Z,4.10
2022-09-18T12:11:26.330Z,4.30
2022-09-18T12:14:14.821Z,3.90
2022-09-18T12:17:00.804Z,5.70
2022-09-18T12:19:39.223Z,8.30
2022-09-18T12:22:18.594Z,3.30
2022-09-18T12:24:51.666Z,3.60
2022-09-18T12:27:39.927Z,5.80
2022-09-18T12:30:14.820Z,4.20
2022-09-18T12:33:03.545Z,5.80
2022-09-18T12:35:49.322Z,4.10
2022-09-18T12:38:36.149Z,3.40
2022-09-18T12:41:33.411Z,3.40
2022-09-18T12:44:33.518Z,4.50
2022-09-18T12:47:24.639Z,5.60
2022-09-18T12:50:22.296Z,2.70
2022-09-18T12:53:09.869Z,3.70
2022-09-18T12:56:02.488Z,3.40
2022-09-18T12:58:51.260Z,5.10
2022-09-18T13:01:33.433Z,6.60
2022-09-18T13:04:14.551Z,5.40
2022-09-18T13:06:51.075Z,5.90
2022-09-18T13:09:29.227Z,5.10
2022-09-18T13:12:04.419Z,4.00
2022-09-18T13:14:44.312Z,7.60
2022-09-18T13:17:22.525Z,5.80
2022-09-18T13:20:01.630Z,4.90
2022-09-18T13:22:38.125Z,4.70
2022-09-18T13:25:29.335Z,5.50
2022-09-18T13:28:04.885Z,5.30
2022-09-18T13:30:37.332Z,4.50
2022-09-18T13:33:25.853Z,5.00
2022-09-18T13:35:59.764Z,5.90
2022-09-18T13:38:35.031Z,5.50
2022-09-18T13:41:10.202Z,4.80
2022-09-18T13:43:45.765Z,5.10
2022-09-18T13:46:37.332Z,5.20
2022-09-18T13:49:29.994Z,6.30
2022-09-18T13:52:42.777Z,6.40
2022-09-18T13:55:51.136Z,4.80
2022-09-18T13:58:54.594Z,6.20
2022-09-18T14:01:57.412Z,6.80
2022-09-18T14:05:02.979Z,6.50
2022-09-18T14:07:55.871Z,6.40
2022-09-18T14:10:32.024Z,7.00
2022-09-18T14:13:52.009Z,6.40
2022-09-18T14:16:38.908Z,8.30
2022-09-18T14:19:38.026Z,7.70
2022-09-18T14:22:25.808Z,9.10
2022-09-18T14:25:00.748Z,9.60
2022-09-18T14:27:49.992Z,9.00
2022-09-18T14:30:25.411Z,8.50
2022-09-18T14:33:04.491Z,7.50
2022-09-18T14:35:46.924Z,10.50
2022-09-18T14:38:28.634Z,5.70
2022-09-18T14:41:19.117Z,7.60
2022-09-18T14:44:31.666Z,6.40
2022-09-18T14:47:03.351Z,7.60
2022-09-18T14:49:40.670Z,8.80
2022-09-18T14:52:23.763Z,7.00
2022-09-18T14:54:59.033Z,9.80
2022-09-18T14:57:37.258Z,10.90
2022-09-18T15:00:18.095Z,9.60
2022-09-18T15:02:56.519Z,10.90
2022-09-18T15:05:30.814Z,8.50
2022-09-18T15:08:08.132Z,13.10
2022-09-18T15:10:41.697Z,8.80
2022-09-18T15:13:16.473Z,9.70
2022-09-18T15:15:49.335Z,10.70
2022-09-18T15:18:23.779Z,10.40
2022-09-18T15:20:58.342Z,10.10
2022-09-18T15:23:33.822Z,9.60
2022-09-18T15:26:14.632Z,9.50
2022-09-18T15:28:50.203Z,8.70
2022-09-18T15:31:24.638Z,9.40
2022-09-18T15:34:01.211Z,9.10
2022-09-18T15:36:35.599Z,9.70
2022-09-18T15:39:15.873Z,8.30
2022-09-18T15:41:48.130Z,8.50
2022-09-18T15:47:50.657Z,9.60
2022-09-18T15:50:37.883Z,10.40
2022-09-18T15:53:24.694Z,10.80
2022-09-18T15:56:00.687Z,11.10
2022-09-18T15:58:40.801Z,10.80
2022-09-18T16:01:21.153Z,8.70
2022-09-18T16:04:06.690Z,12.30
2022-09-18T16:06:49.877Z,8.80
2022-09-18T16:09:36.544Z,9.00
2022-09-18T16:12:42.560Z,10.80
2022-09-18T16:15:21.136Z,8.60
2022-09-18T16:17:59.240Z,8.20
2022-09-18T16:20:35.331Z,8.20
2022-09-18T16:23:20.319Z,12.00
2022-09-18T16:26:07.128Z,9.30
2022-09-18T16:28:44.230Z,7.30
2022-09-18T16:31:18.154Z,9.20
2022-09-18T16:33:55.574Z,8.90
2022-09-18T16:36:31.659Z,9.00
2022-09-18T16:39:08.182Z,8.40
2022-09-18T16:41:41.048Z,8.20
2022-09-18T16:44:15.379Z,9.00
2022-09-18T16:46:51.062Z,8.20
2022-09-18T16:49:26.828Z,9.30
2022-09-18T16:52:00.488Z,8.90
2022-09-18T16:54:32.727Z,10.40
2022-09-18T16:57:11.555Z,10.10
2022-09-18T16:59:45.791Z,7.50
2022-09-18T17:02:25.382Z,6.90
2022-09-18T17:04:58.166Z,7.50
2022-09-18T17:07:30.866Z,7.80
2022-09-18T17:10:03.199Z,8.90
2022-09-18T17:12:35.450Z,9.30
2022-09-18T17:15:09.077Z,8.50
2022-09-18T17:17:41.143Z,8.00
2022-09-18T17:20:17.800Z,7.80
2022-09-18T17:25:22.265Z,8.30
2022-09-18T17:27:54.844Z,14.80
2022-09-18T17:30:26.898Z,7.70
2022-09-18T17:32:59.341Z,8.60
2022-09-18T17:35:31.422Z,6.30
2022-09-18T17:38:03.495Z,7.20
2022-09-18T17:40:35.720Z,6.90
2022-09-18T17:43:08.048Z,6.70
2022-09-18T17:45:40.128Z,6.90
2022-09-18T17:48:12.230Z,7.70
2022-09-18T17:50:44.854Z,6.70
2022-09-18T17:53:17.755Z,6.90
2022-09-18T17:55:51.952Z,5.20
2022-09-18T17:58:24.173Z,6.40
2022-09-18T18:00:56.735Z,8.40
2022-09-18T18:03:29.408Z,5.30
2022-09-18T18:06:03.035Z,5.80
2022-09-18T18:08:35.303Z,5.90
2022-09-18T18:11:09.963Z,6.00
2022-09-18T18:13:43.880Z,4.30
2022-09-18T18:16:21.529Z,4.00
2022-09-18T18:18:55.858Z,3.90
2022-09-18T18:21:29.036Z,2.30
2022-09-18T18:24:03.851Z,4.10
2022-09-18T18:26:36.408Z,3.70
2022-09-18T18:29:11.133Z,4.00
2022-09-18T18:31:44.352Z,5.70
2022-09-18T18:34:21.278Z,4.20
2022-09-18T18:36:53.347Z,4.40
2022-09-18T18:39:25.532Z,4.40
2022-09-18T18:41:58.030Z,5.00
2022-09-18T18:44:30.279Z,6.20
2022-09-18T18:47:02.473Z,4.80
2022-09-18T18:49:34.728Z,5.50
2022-09-18T18:52:07.543Z,7.90
2022-09-18T18:54:39.923Z,5.10
2022-09-18T18:57:12.187Z,5.60
2022-09-18T18:59:44.516Z,5.80
2022-09-18T19:02:17.373Z,7.80
2022-09-18T19:04:49.433Z,7.20
2022-09-18T19:07:21.569Z,6.90
2022-09-18T19:09:53.794Z,8.00
2022-09-18T19:12:26.724Z,7.90
2022-09-18T19:14:58.713Z,7.80
2022-09-18T19:17:30.748Z,7.90
2022-09-18T19:20:03.183Z,7.80
2022-09-18T19:22:35.252Z,6.50
2022-09-18T19:25:09.015Z,9.20
2022-09-18T19:27:42.346Z,9.70
2022-09-18T19:30:15.356Z,7.30
2022-09-18T19:32:47.374Z,6.10
2022-09-18T19:35:19.571Z,9.30
2022-09-18T19:37:51.596Z,7.30
2022-09-18T19:40:23.849Z,7.80
2022-09-18T19:42:59.407Z,5.50
2022-09-18T19:45:34.248Z,6.40
2022-09-18T19:48:17.261Z,7.60
2022-09-18T19:50:49.575Z,8.50
2022-09-18T19:53:22.362Z,6.60
2022-09-18T19:55:54.460Z,5.80
2022-09-18T19:58:27.377Z,5.30
2022-09-18T20:01:00.497Z,5.90
2022-09-18T20:03:32.860Z,4.60
2022-09-18T20:06:05.298Z,3.60
2022-09-18T20:08:37.356Z,2.80
2022-09-18T20:11:09.467Z,4.20
2022-09-18T20:13:42.278Z,3.50
2022-09-18T20:16:14.593Z,4.30
2022-09-18T20:18:47.707Z,4.60
2022-09-18T20:21:20.665Z,3.90
2022-09-18T20:23:56.551Z,3.30
2022-09-18T20:26:29.276Z,2.50
2022-09-18T20:29:01.449Z,3.60
2022-09-18T20:31:33.619Z,5.90
2022-09-18T20:34:06.036Z,6.40
2022-09-18T20:36:38.267Z,5.10
2022-09-18T20:39:10.670Z,6.70
2022-09-18T20:41:42.758Z,7.20
2022-09-18T20:44:15.588Z,6.00
2022-09-18T20:46:50.394Z,5.20
2022-09-18T20:49:23.164Z,4.20
2022-09-18T20:51:55.606Z,4.50
2022-09-18T20:54:27.947Z,6.50
2022-09-18T20:57:00.565Z,6.30
2022-09-18T20:59:32.736Z,7.70
2022-09-18T21:02:06.248Z,6.20
2022-09-18T21:04:39.197Z,6.20
2022-09-18T21:07:11.273Z,8.00
2022-09-18T21:09:43.320Z,8.40
2022-09-18T21:12:15.755Z,7.50
2022-09-18T21:14:48.198Z,7.40
2022-09-18T21:17:20.402Z,7.80
2022-09-18T21:19:52.427Z,7.60
2022-09-18T21:22:24.938Z,9.00
2022-09-18T21:24:56.968Z,8.60
2022-09-18T21:27:29.314Z,10.90
2022-09-18T21:30:01.351Z,7.70
2022-09-18T21:32:33.509Z,8.60
2022-09-18T21:35:06.061Z,8.00
2022-09-18T21:37:38.082Z,7.30
2022-09-18T21:40:12.883Z,9.10
2022-09-18T21:42:47.691Z,8.70
2022-09-18T21:45:20.789Z,8.50
2022-09-18T21:47:53.749Z,14.00
2022-09-18T21:50:25.998Z,13.00
2022-09-18T21:52:58.111Z,9.00
2022-09-18T21:55:37.587Z,9.50
2022-09-18T21:58:09.859Z,8.90
2022-09-18T22:00:41.718Z,10.50
2022-09-18T22:03:16.020Z,9.70
2022-09-18T22:05:47.916Z,10.10
2022-09-18T22:08:20.112Z,10.50
2022-09-18T22:10:51.932Z,8.10
2022-09-18T22:13:24.032Z,9.50
2022-09-18T22:15:57.188Z,12.20
2022-09-18T22:18:30.435Z,10.20
2022-09-18T22:21:02.242Z,9.80
2022-09-18T22:23:34.897Z,13.30
2022-09-18T22:26:07.067Z,10.30
2022-09-18T22:28:38.963Z,14.70
2022-09-18T22:31:10.923Z,11.50
2022-09-18T22:33:42.956Z,12.30
2022-09-18T22:36:15.122Z,15.20
2022-09-18T22:38:46.935Z,12.20
2022-09-18T22:41:18.908Z,16.80
2022-09-18T22:43:54.126Z,15.60
2022-09-18T22:46:27.244Z,13.70
2022-09-18T22:48:59.649Z,14.50
2022-09-18T22:51:31.703Z,16.10
2022-09-18T22:54:07.739Z,15.00
2022-09-18T22:56:44.575Z,13.50
2022-09-18T23:01:51.979Z,15.30
2022-09-18T23:04:28.135Z,16.60
2022-09-18T23:07:01.964Z,17.40
2022-09-18T23:09:34.320Z,15.10
2022-09-18T23:12:07.403Z,14.50
2022-09-18T23:14:39.450Z,10.80
2022-09-18T23:17:11.811Z,11.10
2022-09-18T23:19:43.805Z,11.40
2022-09-18T23:22:16.807Z,10.40
2022-09-18T23:24:50.420Z,12.30
2022-09-18T23:27:22.477Z,11.80
2022-09-18T23:29:54.777Z,12.10
2022-09-18T23:32:26.967Z,10.80
2022-09-18T23:34:59.065Z,9.20
2022-09-18T23:37:31.291Z,11.00
2022-09-18T23:40:03.688Z,10.70
2022-09-18T23:42:36.178Z,15.10
2022-09-18T23:45:12.587Z,11.00
2022-09-18T23:47:44.781Z,7.80
2022-09-18T23:50:17.028Z,11.90
2022-09-18T23:52:49.073Z,9.70
2022-09-18T23:55:21.314Z,7.10
2022-09-18T23:57:53.349Z,11.40
